Time;durP1;ratioP1;P1;durP2;ratioP2;P2;SDS_P1;SDS_P2;PMS_P1;PMS_P2;Temp;Humidity;BMP_temperature;BMP_pressure;BME280_temperature;BME280_humidity;BME280_pressure;Samples;Min_cycle;Max_cycle;Signal;HPM_P1;HPM_P2
2021/09/30 00:02:21;;;;;;;122.63;39.43;;;;;;;12.91;78.59;101717.19;5029608;28;20422;-71
2021/09/30 00:04:49;;;;;;;120.57;39.80;;;;;;;12.81;78.39;101706.09;5029406;28;20820;-71
2021/09/30 00:07:18;;;;;;;117.53;38.67;;;;;;;12.81;78.43;101719.56;5028316;28;20467;-71
2021/09/30 00:09:47;;;;;;;117.63;38.03;;;;;;;12.80;77.72;101714.25;5028406;28;20467;-71
2021/09/30 00:12:20;;;;;;;116.87;38.27;;;;;;;12.75;78.14;101706.47;5029330;28;20989;-70
2021/09/30 00:14:52;;;;;;;118.13;38.87;;;;;;;12.80;77.74;101708.88;5029640;28;20456;-71
2021/09/30 00:34:02;;;;;;;107.17;31.13;;;;;;;12.56;77.82;101684.31;5028718;28;20456;-70
2021/09/30 00:42:07;;;;;;;114.00;34.20;;;;;;;12.60;77.85;101686.72;5017387;28;20451;-70
2021/09/30 00:47:34;;;;;;;114.20;37.00;;;;;;;12.66;77.86;101685.47;5029023;28;20449;-71
2021/09/30 00:50:10;;;;;;;117.37;36.70;;;;;;;12.64;77.86;101682.88;5029528;28;20574;-71
2021/09/30 00:52:45;;;;;;;113.20;35.90;;;;;;;12.61;77.78;101677.69;5031943;28;20887;-71
2021/09/30 01:18:54;;;;;;;112.33;38.07;;;;;;;12.64;78.41;101664.00;5044813;28;20456;-71
2021/09/30 02:24:33;;;;;;;112.03;36.50;;;;;;;13.00;79.54;101625.78;5046791;28;20577;-71
2021/09/30 02:30:00;;;;;;;104.30;34.90;;;;;;;12.97;80.15;101614.34;5030149;28;20254;-70
2021/09/30 02:58:27;;;;;;;113.40;37.43;;;;;;;12.90;80.87;101599.53;5028023;28;20914;-72
2021/09/30 03:00:58;;;;;;;114.73;37.53;;;;;;;12.95;80.34;101595.56;5032326;28;20593;-71
2021/09/30 03:03:27;;;;;;;115.30;36.90;;;;;;;13.03;80.37;101603.16;5016843;28;20879;-72
2021/09/30 03:05:56;;;;;;;111.40;36.73;;;;;;;12.91;80.47;101588.63;5026003;28;20712;-71
2021/09/30 03:08:27;;;;;;;110.63;35.87;;;;;;;13.03;80.57;101600.47;5019283;28;20485;-71
2021/09/30 03:10:59;;;;;;;109.60;36.93;;;;;;;13.06;79.90;101590.34;5010969;28;20476;-71
2021/09/30 03:13:31;;;;;;;104.80;33.67;;;;;;;13.02;80.84;101596.91;5023212;28;20468;-70
2021/09/30 03:16:03;;;;;;;107.07;36.20;;;;;;;13.01;80.30;101588.91;5023071;28;20950;-71
2021/09/30 03:18:49;;;;;;;110.53;36.57;;;;;;;12.92;80.64;101574.19;5025083;28;20497;-70
2021/09/30 03:24:09;;;;;;;108.37;32.23;;;;;;;13.00;81.25;101581.78;4991445;28;20787;-71
2021/09/30 03:26:39;;;;;;;112.90;34.53;;;;;;;13.03;80.79;101581.59;5044810;28;20829;-71
2021/09/30 03:29:08;;;;;;;115.37;37.43;;;;;;;12.97;80.84;101576.59;5045125;28;20455;-70
2021/09/30 03:31:38;;;;;;;118.40;38.53;;;;;;;13.00;80.91;101579.09;5028442;28;20462;-71
2021/09/30 03:34:39;;;;;;;113.07;37.03;;;;;;;12.69;81.51;101529.84;5017395;28;20725;-71
2021/09/30 03:37:09;;;;;;;110.67;35.47;;;;;;;12.99;81.80;101580.06;5028104;28;20531;-71
2021/09/30 03:39:41;;;;;;;110.03;35.03;;;;;;;13.05;81.26;101574.25;5044641;28;20521;-71
2021/09/30 03:42:09;;;;;;;103.70;30.87;;;;;;;13.06;81.42;101576.00;5044725;28;20478;-71
2021/09/30 03:44:40;;;;;;;104.00;30.80;;;;;;;13.06;81.14;101576.00;5028119;28;20499;-71
2021/09/30 03:47:13;;;;;;;103.37;32.70;;;;;;;13.01;81.31;101576.28;5044658;28;20534;-71
2021/09/30 03:49:53;;;;;;;108.60;34.33;;;;;;;13.00;81.20;101571.00;5044875;28;20541;-71
2021/09/30 03:52:30;;;;;;;109.00;31.97;;;;;;;13.03;81.34;101565.41;5028393;28;21020;-71
2021/09/30 03:55:19;;;;;;;108.07;31.00;;;;;;;13.02;81.37;101571.75;5044573;28;20495;-71
2021/09/30 03:59:05;;;;;;;107.67;33.60;;;;;;;13.03;82.03;101571.66;5041095;28;20443;-71
2021/09/30 04:00:39;;;;;;;105.03;33.30;;;;;;;13.06;81.87;101581.38;5032506;28;20473;-71
2021/09/30 04:03:07;;;;;;;107.30;33.93;;;;;;;13.07;81.43;101559.69;5039048;28;20513;-71
2021/09/30 04:05:41;;;;;;;105.10;33.13;;;;;;;13.09;81.31;101567.69;5044597;28;20464;-72
2021/09/30 04:08:12;;;;;;;105.47;33.37;;;;;;;13.08;82.00;101565.97;5044512;28;20961;-71
2021/09/30 04:10:43;;;;;;;104.23;31.93;;;;;;;13.14;81.56;101562.00;5030504;28;20472;-71
2021/09/30 04:13:11;;;;;;;98.23;29.97;;;;;;;13.12;81.78;101556.69;5041984;28;20466;-70
2021/09/30 04:15:39;;;;;;;96.57;29.83;;;;;;;13.15;81.95;101564.59;5028008;28;20562;-69
2021/09/30 04:18:08;;;;;;;100.90;29.93;;;;;;;13.12;81.87;101558.53;5030305;28;20467;-70
2021/09/30 04:20:36;;;;;;;103.10;31.13;;;;;;;13.11;81.90;101554.97;5024906;28;20475;-70
2021/09/30 04:23:06;;;;;;;103.50;30.37;;;;;;;13.18;81.68;101560.88;5039692;28;20549;-70
2021/09/30 04:25:38;;;;;;;101.33;30.60;;;;;;;13.24;81.52;101549.69;5026025;28;20455;-70
2021/09/30 04:28:08;;;;;;;102.93;30.80;;;;;;;13.09;81.88;101542.56;5024474;28;20458;-70
2021/09/30 04:30:39;;;;;;;99.53;29.50;;;;;;;13.18;82.15;101552.81;5044192;28;20459;-70
2021/09/30 04:33:28;;;;;;;100.23;30.10;;;;;;;13.23;81.42;101548.81;5027830;28;20570;-70
2021/09/30 04:35:57;;;;;;;101.97;30.43;;;;;;;12.90;81.84;101508.72;5041594;28;20955;-69
2021/09/30 04:38:26;;;;;;;104.83;30.63;;;;;;;13.10;81.69;101538.91;5018331;28;20468;-71
2021/09/30 04:40:54;;;;;;;105.80;31.07;;;;;;;13.20;82.02;101550.88;5014357;28;20574;-71
2021/09/30 04:43:23;;;;;;;104.33;30.93;;;;;;;13.24;81.78;101542.47;5019626;28;20497;-70
2021/09/30 04:45:51;;;;;;;102.13;30.47;;;;;;;13.25;81.46;101544.19;5000717;28;20511;-68
2021/09/30 04:48:20;;;;;;;107.20;31.13;;;;;;;13.22;81.18;101541.69;5033671;28;20455;-69
2021/09/30 04:50:54;;;;;;;108.00;31.30;;;;;;;13.23;81.19;101540.75;5026642;28;20461;-69
2021/09/30 04:53:23;;;;;;;105.30;31.40;;;;;;;13.22;81.64;101549.78;5038954;28;20467;-70
2021/09/30 04:55:51;;;;;;;102.77;30.70;;;;;;;13.02;81.70;101515.13;5005715;28;20990;-69
2021/09/30 04:58:19;;;;;;;102.80;30.07;;;;;;;13.19;81.51;101547.31;5021418;28;20544;-69
2021/09/30 05:00:49;;;;;;;106.77;31.73;;;;;;;12.84;81.77;101479.44;5026028;28;20562;-69
2021/09/30 05:03:18;;;;;;;103.53;30.70;;;;;;;13.17;81.98;101537.56;5039539;28;20975;-70
2021/09/30 05:05:47;;;;;;;102.77;30.20;;;;;;;13.22;81.59;101536.31;5021744;28;20482;-70
2021/09/30 05:08:16;;;;;;;103.37;30.83;;;;;;;13.21;81.80;101539.97;5011835;28;20506;-70
2021/09/30 05:10:47;;;;;;;104.40;30.77;;;;;;;13.06;81.23;101516.66;5021705;28;20996;-70
2021/09/30 05:13:18;;;;;;;104.10;30.50;;;;;;;13.25;81.17;101541.50;5022926;28;20445;-70
2021/09/30 05:15:50;;;;;;;104.23;30.80;;;;;;;12.88;81.26;101475.63;5025983;28;20463;-70
2021/09/30 05:18:40;;;;;;;103.27;30.20;;;;;;;13.28;81.30;101538.59;5028771;28;20895;-70
2021/09/30 05:21:08;;;;;;;105.03;29.97;;;;;;;13.21;81.97;101537.28;5042767;28;20258;-70
2021/09/30 05:23:36;;;;;;;104.53;30.63;;;;;;;13.22;81.71;101532.75;5023756;28;20488;-70
2021/09/30 05:26:05;;;;;;;102.37;30.03;;;;;;;13.21;82.00;101531.88;5039558;28;20468;-70
2021/09/30 05:28:34;;;;;;;101.37;29.83;;;;;;;13.24;82.06;101520.03;5025336;28;20501;-68
2021/09/30 05:31:04;;;;;;;102.53;30.60;;;;;;;13.17;82.36;101529.47;5026158;28;21016;-68
2021/09/30 05:34:04;;;;;;;104.50;30.20;;;;;;;13.20;81.97;101524.75;5013962;28;20475;-69
2021/09/30 05:36:34;;;;;;;104.80;30.80;;;;;;;13.27;82.14;101523.38;5025276;28;20460;-69
2021/09/30 05:39:02;;;;;;;105.23;31.43;;;;;;;13.27;82.31;101526.06;5024812;28;20523;-68
2021/09/30 05:41:32;;;;;;;104.93;30.87;;;;;;;13.23;81.76;101523.69;5025071;28;20459;-68
2021/09/30 05:44:07;;;;;;;105.57;31.13;;;;;;;13.02;82.09;101485.47;5022676;28;20527;-68
2021/09/30 05:46:42;;;;;;;107.30;30.53;;;;;;;13.23;82.05;101527.25;5025208;28;20979;-69
2021/09/30 05:49:10;;;;;;;105.80;30.60;;;;;;;13.26;81.95;101515.38;5040486;28;20477;-70
2021/09/30 05:51:39;;;;;;;106.07;30.90;;;;;;;13.25;82.31;101516.34;5027732;28;20486;-69
2021/09/30 05:54:36;;;;;;;106.20;30.83;;;;;;;13.23;82.48;101524.56;5019507;28;20526;-69
2021/09/30 05:57:23;;;;;;;105.30;29.97;;;;;;;13.27;82.49;101514.41;5025763;28;20474;-69
2021/09/30 05:59:51;;;;;;;106.83;31.17;;;;;;;13.24;82.28;101515.50;5042820;28;20467;-69
2021/09/30 06:11:00;;;;;;;106.90;30.33;;;;;;;13.20;82.75;101497.78;5025574;28;20458;-69
2021/09/30 06:13:32;;;;;;;109.90;30.93;;;;;;;13.25;81.97;101489.38;5027735;28;20463;-68
2021/09/30 06:16:05;;;;;;;109.10;30.77;;;;;;;13.21;82.12;101499.50;5026090;28;20519;-69
2021/09/30 06:18:35;;;;;;;110.37;31.73;;;;;;;13.20;82.40;101495.09;5023649;28;20887;-69
2021/09/30 06:21:05;;;;;;;109.97;31.30;;;;;;;13.14;82.09;101484.66;5021483;28;21009;-69
2021/09/30 06:23:33;;;;;;;109.00;30.80;;;;;;;13.30;82.84;101504.28;5037029;28;20491;-69
2021/09/30 06:26:01;;;;;;;108.20;30.93;;;;;;;13.27;82.75;101498.22;5026053;28;20478;-70
2021/09/30 06:28:33;;;;;;;109.20;31.10;;;;;;;13.24;82.82;101488.50;5042825;28;20465;-71
2021/09/30 06:31:06;;;;;;;110.17;31.67;;;;;;;13.40;82.99;101509.06;5042555;28;20486;-70
2021/09/30 06:33:55;;;;;;;109.80;31.80;;;;;;;13.40;82.66;101504.53;5029651;28;20550;-68
2021/09/30 06:36:36;;;;;;;107.70;31.33;;;;;;;13.40;82.34;101506.34;5035852;28;20494;-69
2021/09/30 06:39:05;;;;;;;107.30;31.50;;;;;;;13.43;81.94;101508.84;5029139;28;20459;-69
2021/09/30 06:41:37;;;;;;;106.77;31.17;;;;;;;13.43;82.40;101512.41;5046028;28;20463;-69
2021/09/30 06:44:51;;;;;;;105.37;31.60;;;;;;;13.43;82.36;101488.13;5003590;28;20448;-69
2021/09/30 06:47:38;;;;;;;103.80;30.53;;;;;;;13.51;81.69;101501.97;5031090;28;20514;-69
2021/09/30 06:50:38;;;;;;;104.83;30.60;;;;;;;13.51;82.21;101501.13;5025891;28;20490;-69
2021/09/30 06:53:09;;;;;;;107.27;30.93;;;;;;;13.48;81.89;101496.78;5038761;28;20462;-68
2021/09/30 06:56:11;;;;;;;106.20;30.77;;;;;;;13.40;81.71;101498.25;4996946;28;20866;-69
2021/09/30 06:59:20;;;;;;;106.03;31.20;;;;;;;13.35;81.77;101496.75;5017579;28;20479;-69
2021/09/30 07:02:08;;;;;;;106.70;31.23;;;;;;;13.41;81.67;101500.84;5030315;28;20442;-68
2021/09/30 07:04:55;;;;;;;108.07;31.20;;;;;;;13.42;82.03;101501.72;5030619;28;20490;-69
2021/09/30 07:07:43;;;;;;;107.40;31.17;;;;;;;13.39;81.94;101499.22;5030580;28;20455;-70
2021/09/30 07:10:12;;;;;;;104.03;30.60;;;;;;;13.15;82.04;101455.84;5029334;28;20456;-69
2021/09/30 07:12:41;;;;;;;100.40;29.97;;;;;;;13.38;82.06;101492.09;5045519;28;20685;-69
2021/09/30 07:15:10;;;;;;;101.17;30.40;;;;;;;13.36;82.04;101493.06;5030364;28;20462;-70
2021/09/30 07:17:38;;;;;;;93.47;29.00;;;;;;;13.39;82.31;101497.41;5030418;28;20455;-69
2021/09/30 07:20:08;;;;;;;109.20;31.53;;;;;;;13.38;82.28;101494.81;5028565;28;20480;-70
2021/09/30 07:22:36;;;;;;;112.67;31.77;;;;;;;13.40;82.37;101503.66;5029892;28;20565;-70
2021/09/30 07:25:07;;;;;;;106.40;31.67;;;;;;;13.37;82.23;101488.53;5029920;28;20444;-69
2021/09/30 07:27:35;;;;;;;106.47;31.30;;;;;;;13.31;82.23;101484.44;5016288;28;20976;-69
2021/09/30 07:30:04;;;;;;;106.27;31.60;;;;;;;13.43;82.72;101498.06;5030262;28;20871;-70
2021/09/30 07:32:33;;;;;;;108.13;31.20;;;;;;;13.18;82.81;101469.19;5029864;28;20466;-70
2021/09/30 07:35:01;;;;;;;111.00;32.17;;;;;;;13.41;82.71;101486.50;5030027;28;20447;-70
2021/09/30 07:37:29;;;;;;;106.90;32.07;;;;;;;13.33;82.50;101497.81;5030152;28;20950;-70
2021/09/30 07:39:57;;;;;;;108.37;32.60;;;;;;;13.18;83.03;101461.97;5029677;28;20459;-69
2021/09/30 07:42:27;;;;;;;105.83;31.07;;;;;;;13.11;83.34;101465.13;5029878;28;20448;-69
2021/09/30 07:44:55;;;;;;;106.77;33.93;;;;;;;13.23;83.66;101492.19;5028121;28;20488;-70
2021/09/30 07:47:24;;;;;;;106.97;35.53;;;;;;;13.25;83.59;101492.94;5030176;28;20734;-70
2021/09/30 07:49:52;;;;;;;108.20;36.63;;;;;;;13.21;84.23;101494.13;5029343;28;20544;-70
2021/09/30 07:52:20;;;;;;;105.57;34.40;;;;;;;13.20;84.43;101491.53;5043565;28;20456;-69
2021/09/30 07:54:48;;;;;;;104.80;34.87;;;;;;;13.15;84.97;101493.59;5029269;28;20509;-69
2021/09/30 07:57:16;;;;;;;106.27;35.10;;;;;;;13.08;84.76;101493.16;5029583;28;20506;-68
2021/09/30 07:59:46;;;;;;;110.83;34.67;;;;;;;13.01;85.79;101498.09;5029890;28;20459;-68
2021/09/30 08:02:14;;;;;;;112.07;35.37;;;;;;;13.04;86.06;101502.41;5044941;28;20471;-68
2021/09/30 08:04:42;;;;;;;112.80;37.07;;;;;;;12.99;86.80;101501.84;5029546;28;20538;-69
2021/09/30 08:07:10;;;;;;;109.57;35.47;;;;;;;12.68;87.01;101460.72;5028794;28;20505;-69
2021/09/30 08:09:38;;;;;;;113.93;38.53;;;;;;;12.90;87.35;101499.78;5029729;28;20466;-69
2021/09/30 08:12:08;;;;;;;110.50;37.53;;;;;;;12.71;87.46;101484.78;5027373;28;20463;-68
2021/09/30 08:14:36;;;;;;;110.67;37.33;;;;;;;12.67;87.83;101480.56;5029266;28;20463;-69
2021/09/30 08:17:08;;;;;;;112.03;38.13;;;;;;;12.67;88.31;101490.47;5029073;28;20602;-69
2021/09/30 08:19:36;;;;;;;109.13;36.70;;;;;;;12.66;88.43;101495.00;5029196;28;20455;-70
2021/09/30 08:22:04;;;;;;;105.77;35.67;;;;;;;12.44;89.30;101465.00;5029130;28;20487;-70
2021/09/30 08:24:33;;;;;;;104.40;35.63;;;;;;;12.62;89.26;101485.38;5044298;28;20491;-68
2021/09/30 08:27:01;;;;;;;102.50;35.57;;;;;;;12.63;89.64;101497.91;5029110;28;20498;-68
2021/09/30 08:29:29;;;;;;;102.63;36.17;;;;;;;12.62;89.88;101495.31;5028977;28;20456;-69
2021/09/30 08:31:57;;;;;;;104.83;35.57;;;;;;;12.67;89.95;101503.94;5029013;28;20463;-69
2021/09/30 08:34:27;;;;;;;102.97;35.37;;;;;;;12.65;90.35;101504.06;5028770;28;20697;-69
2021/09/30 08:36:55;;;;;;;101.40;35.40;;;;;;;12.61;90.78;101499.81;5043796;28;20841;-69
2021/09/30 08:39:23;;;;;;;101.20;35.30;;;;;;;12.57;90.77;101494.75;5028587;28;20753;-69
2021/09/30 08:41:51;;;;;;;98.53;32.97;;;;;;;12.60;91.10;101498.09;5028881;28;20448;-69
2021/09/30 08:44:19;;;;;;;99.30;30.10;;;;;;;12.59;90.97;101496.38;5043872;28;20495;-68
2021/09/30 08:46:47;;;;;;;98.40;30.60;;;;;;;12.59;91.01;101507.16;5028978;28;20451;-69
2021/09/30 08:49:15;;;;;;;101.97;32.73;;;;;;;12.52;91.29;101500.38;5028587;28;20278;-70
2021/09/30 08:51:44;;;;;;;104.17;32.80;;;;;;;12.47;91.36;101496.25;5042432;28;20454;-69
2021/09/30 08:54:12;;;;;;;105.30;35.60;;;;;;;12.46;91.92;101500.78;5028337;28;20448;-69
2021/09/30 08:56:41;;;;;;;105.30;34.90;;;;;;;12.42;91.92;101489.34;5028311;28;20486;-69
2021/09/30 08:59:16;;;;;;;103.77;34.30;;;;;;;12.37;92.50;101496.84;5043621;28;20462;-69
2021/09/30 09:01:46;;;;;;;103.73;34.37;;;;;;;12.30;92.79;101482.06;5028733;28;20462;-69
2021/09/30 09:04:19;;;;;;;102.47;33.57;;;;;;;12.34;92.56;101496.19;5028086;28;20924;-69
2021/09/30 09:06:49;;;;;;;103.87;33.83;;;;;;;12.36;92.50;101496.94;5028529;28;20542;-69
2021/09/30 09:09:25;;;;;;;103.53;33.13;;;;;;;12.37;92.83;101493.28;5028445;28;20454;-69
2021/09/30 09:11:54;;;;;;;104.90;34.47;;;;;;;12.36;93.13;101494.25;5028064;28;20680;-69
2021/09/30 09:14:24;;;;;;;103.77;34.13;;;;;;;12.35;93.25;101497.91;5028230;28;20444;-69
2021/09/30 09:17:00;;;;;;;103.03;33.27;;;;;;;12.23;93.46;101475.28;5027980;28;21000;-69
2021/09/30 09:19:30;;;;;;;102.90;32.83;;;;;;;12.38;93.71;101493.19;5028170;28;20451;-69
2021/09/30 09:22:06;;;;;;;101.00;31.67;;;;;;;12.41;92.71;101487.63;5043232;28;20523;-69
2021/09/30 09:24:34;;;;;;;101.00;30.00;;;;;;;12.12;93.10;101440.97;5028243;28;20486;-69
2021/09/30 09:27:03;;;;;;;103.00;30.30;;;;;;;12.39;92.83;101477.91;5027888;28;20482;-69
2021/09/30 09:29:32;;;;;;;103.13;32.90;;;;;;;12.37;93.10;101487.91;5028064;28;20555;-69
2021/09/30 09:32:06;;;;;;;98.23;29.60;;;;;;;12.43;92.35;101498.28;5043322;28;20533;-69
2021/09/30 09:34:38;;;;;;;100.70;31.23;;;;;;;12.44;92.52;101486.56;5027973;28;20443;-69
2021/09/30 09:37:29;;;;;;;100.40;30.43;;;;;;;12.48;92.06;101490.78;5028077;28;20451;-68
2021/09/30 09:39:58;;;;;;;93.80;29.27;;;;;;;12.46;91.31;101487.31;5027890;28;20462;-69
2021/09/30 09:42:30;;;;;;;99.80;32.63;;;;;;;12.43;92.10;101479.44;5043572;28;20448;-69
2021/09/30 09:45:00;;;;;;;102.07;35.20;;;;;;;12.47;91.78;101483.66;5027796;28;20217;-69
2021/09/30 09:47:31;;;;;;;97.93;32.03;;;;;;;12.49;91.53;101479.03;5028155;28;20470;-68
2021/09/30 09:50:14;;;;;;;96.80;33.17;;;;;;;12.42;91.17;101486.66;5027490;28;20455;-68
2021/09/30 09:52:50;;;;;;;102.67;34.00;;;;;;;12.45;91.71;101482.91;5028221;28;20525;-69
2021/09/30 09:55:29;;;;;;;96.40;32.73;;;;;;;12.44;91.36;101479.34;5027928;28;20213;-69
2021/09/30 09:58:04;;;;;;;96.77;32.23;;;;;;;12.45;91.24;101466.72;5027782;28;20448;-69
2021/09/30 10:00:34;;;;;;;100.97;33.87;;;;;;;12.46;91.65;101465.75;5027736;28;20189;-70
2021/09/30 10:03:15;;;;;;;98.90;33.87;;;;;;;12.49;91.67;101468.25;5043163;28;20248;-70
2021/09/30 10:05:44;;;;;;;99.47;33.50;;;;;;;12.49;91.62;101468.25;5027834;28;20471;-70
2021/09/30 10:08:15;;;;;;;99.97;33.97;;;;;;;12.54;91.79;101467.97;5029689;28;20213;-70
2021/09/30 10:10:45;;;;;;;96.77;32.90;;;;;;;12.43;91.66;101442.59;5031757;28;20502;-69
2021/09/30 10:13:14;;;;;;;95.77;31.40;;;;;;;12.53;91.91;101471.63;5031442;28;20209;-69
2021/09/30 10:15:42;;;;;;;95.57;32.50;;;;;;;12.47;91.90;101454.03;5031851;28;20194;-69
2021/09/30 10:18:12;;;;;;;99.77;34.40;;;;;;;12.55;91.71;101464.31;5046828;28;20530;-69
2021/09/30 10:20:41;;;;;;;104.37;33.73;;;;;;;12.42;91.64;101440.00;5031582;28;20584;-69
2021/09/30 10:23:12;;;;;;;99.80;30.70;;;;;;;12.62;91.53;101461.13;5031426;28;20816;-69
2021/09/30 10:25:45;;;;;;;98.23;33.37;;;;;;;12.58;90.86;101440.75;5031222;28;20569;-69
2021/09/30 10:28:14;;;;;;;99.33;32.93;;;;;;;12.63;90.99;101438.59;5018267;28;20955;-69
2021/09/30 10:30:45;;;;;;;107.10;35.43;;;;;;;12.57;91.31;101432.75;5031560;28;20683;-69
2021/09/30 10:33:15;;;;;;;104.27;34.67;;;;;;;12.51;91.44;101412.44;5030982;28;20745;-70
2021/09/30 10:35:45;;;;;;;106.10;35.33;;;;;;;12.75;91.30;101443.19;5032045;28;20448;-70
2021/09/30 10:38:21;;;;;;;105.67;34.40;;;;;;;12.33;90.88;101357.09;5030657;28;20459;-69
2021/09/30 10:41:09;;;;;;;106.17;35.20;;;;;;;12.87;91.25;101437.97;5031276;28;20458;-70
2021/09/30 10:43:42;;;;;;;108.20;36.20;;;;;;;12.90;91.52;101440.47;5031112;28;20448;-69
2021/09/30 10:46:45;;;;;;;114.50;38.13;;;;;;;12.92;91.00;101449.31;5030513;28;20483;-69
2021/09/30 10:49:42;;;;;;;109.53;36.10;;;;;;;12.95;90.88;101441.88;5022014;28;21021;-69
2021/09/30 10:52:19;;;;;;;105.73;35.93;;;;;;;12.96;90.56;101427.44;5036575;28;20546;-69
2021/09/30 10:55:22;;;;;;;103.23;35.80;;;;;;;13.02;90.49;101445.88;5045900;28;20455;-68
2021/09/30 10:57:52;;;;;;;101.53;35.17;;;;;;;12.61;89.19;101378.56;5019960;28;20443;-69
2021/09/30 11:00:47;;;;;;;102.23;35.10;;;;;;;12.98;90.15;101438.13;5030735;28;21192;-69
2021/09/30 11:03:23;;;;;;;101.57;31.87;;;;;;;12.88;89.93;101431.63;5030471;28;20966;-69
2021/09/30 11:06:24;;;;;;;99.83;34.70;;;;;;;12.86;90.13;101415.53;5045567;28;20476;-69
2021/09/30 11:09:18;;;;;;;100.67;34.43;;;;;;;13.03;90.12;101435.97;5030121;28;20474;-69
2021/09/30 11:11:48;;;;;;;98.13;33.30;;;;;;;13.03;89.80;101419.78;5030720;28;20448;-70
2021/09/30 11:14:23;;;;;;;99.27;34.33;;;;;;;12.86;89.52;101395.81;5030343;28;20439;-69
2021/09/30 11:16:55;;;;;;;99.73;34.33;;;;;;;13.02;89.85;101429.72;5030675;28;20605;-69
2021/09/30 11:19:38;;;;;;;103.27;35.47;;;;;;;13.00;89.58;101422.69;5030418;28;20821;-69
2021/09/30 11:22:07;;;;;;;102.93;35.13;;;;;;;12.89;89.19;101417.16;5044989;28;20324;-69
2021/09/30 11:24:51;;;;;;;104.30;35.47;;;;;;;13.00;89.43;101430.78;5045365;28;20475;-69
2021/09/30 11:27:38;;;;;;;104.27;34.20;;;;;;;13.01;89.02;101430.69;5030827;28;20459;-69
2021/09/30 11:30:25;;;;;;;108.87;37.20;;;;;;;12.97;89.19;101423.75;5018101;28;20511;-69
2021/09/30 11:32:59;;;;;;;107.33;35.33;;;;;;;13.01;88.97;101432.50;5029683;28;20451;-68
2021/09/30 11:35:28;;;;;;;108.80;36.83;;;;;;;13.00;89.46;101425.38;5030094;28;20423;-69
2021/09/30 11:37:56;;;;;;;107.13;36.00;;;;;;;13.05;88.73;101423.25;5029629;28;20455;-70
2021/09/30 11:40:24;;;;;;;109.33;36.53;;;;;;;13.05;88.85;101423.25;5029941;28;20455;-69
2021/09/30 11:42:54;;;;;;;107.47;36.07;;;;;;;13.10;89.51;101415.69;5029557;28;20464;-70
2021/09/30 11:45:28;;;;;;;111.67;36.53;;;;;;;12.93;89.12;101391.72;5029746;28;20486;-68
2021/09/30 11:48:09;;;;;;;103.50;34.37;;;;;;;13.11;88.70;101414.72;5029335;28;20451;-69
2021/09/30 11:50:37;;;;;;;107.03;36.90;;;;;;;13.08;89.25;101412.25;5035161;28;21012;-69
2021/09/30 11:53:08;;;;;;;105.80;35.87;;;;;;;13.03;89.12;101417.09;5036410;28;20662;-69
2021/09/30 11:55:41;;;;;;;105.67;36.70;;;;;;;13.04;89.36;101406.19;5029699;28;20505;-69
2021/09/30 11:58:15;;;;;;;105.33;34.67;;;;;;;12.73;90.32;101361.56;5029383;28;20946;-69
2021/09/30 12:00:47;;;;;;;102.87;34.27;;;;;;;12.97;89.80;101390.56;5029321;28;20578;-69
2021/09/30 12:03:21;;;;;;;103.47;34.37;;;;;;;12.89;90.04;101374.91;5029720;28;20451;-69
2021/09/30 12:05:53;;;;;;;98.90;32.50;;;;;;;12.90;90.79;101397.31;5029323;28;20553;-69
2021/09/30 12:08:21;;;;;;;99.90;33.30;;;;;;;12.81;91.55;101389.84;5029639;28;20464;-69
2021/09/30 12:10:58;;;;;;;101.23;33.93;;;;;;;12.74;92.77;101397.47;5029329;28;20509;-69
2021/09/30 12:13:26;;;;;;;100.23;33.93;;;;;;;12.66;93.03;101394.44;5029398;28;20447;-69
2021/09/30 12:16:03;;;;;;;104.20;34.83;;;;;;;12.57;93.70;101395.91;5027396;28;20216;-70
2021/09/30 12:18:32;;;;;;;99.80;33.43;;;;;;;12.55;94.86;101403.22;5029417;28;20288;-68
2021/09/30 12:21:01;;;;;;;99.67;33.67;;;;;;;12.56;94.47;101388.78;5028756;28;20719;-68
2021/09/30 12:23:29;;;;;;;98.33;32.40;;;;;;;12.60;94.85;101387.63;5027907;28;20954;-69
2021/09/30 12:26:01;;;;;;;98.83;33.20;;;;;;;12.60;94.42;101387.63;5028518;28;20479;-69
2021/09/30 12:28:30;;;;;;;95.03;31.77;;;;;;;12.58;94.90;101386.84;5029548;28;20518;-69
2021/09/30 12:31:05;;;;;;;94.80;32.50;;;;;;;12.65;95.43;101387.31;5027994;28;20451;-70
2021/09/30 12:33:33;;;;;;;96.07;32.03;;;;;;;12.61;95.75;101383.97;5029110;28;20292;-69
2021/09/30 12:36:04;;;;;;;99.03;33.87;;;;;;;12.45;96.21;101356.28;5028473;28;20691;-70
2021/09/30 12:38:33;;;;;;;98.50;33.60;;;;;;;12.58;96.35;101381.47;5044304;28;20588;-70
2021/09/30 12:41:05;;;;;;;96.17;33.03;;;;;;;12.63;96.54;101373.94;5028260;28;20816;-70
2021/09/30 12:43:34;;;;;;;87.83;28.00;;;;;;;12.64;96.16;101370.28;5028957;28;20217;-70
2021/09/30 12:46:06;;;;;;;89.20;28.00;;;;;;;12.64;96.35;101369.41;5028429;28;20579;-70
2021/09/30 12:48:36;;;;;;;90.50;28.63;;;;;;;12.41;96.29;101317.03;5028855;28;20208;-70
2021/09/30 12:51:07;;;;;;;94.50;31.30;;;;;;;12.68;96.54;101361.00;5037326;28;20197;-70
2021/09/30 12:53:42;;;;;;;100.70;31.60;;;;;;;12.72;96.36;101356.28;5032587;28;20213;-69
2021/09/30 12:56:12;;;;;;;94.07;30.83;;;;;;;12.75;96.52;101359.63;5028457;28;20436;-70
2021/09/30 12:58:42;;;;;;;108.80;34.00;;;;;;;12.84;95.61;101363.53;5028580;28;20225;-70
2021/09/30 13:01:25;;;;;;;100.63;30.80;;;;;;;12.79;95.62;101373.75;5028329;28;20204;-71
2021/09/30 13:04:13;;;;;;;101.47;32.13;;;;;;;12.84;93.81;101362.66;5026661;28;20242;-70
2021/09/30 13:06:49;;;;;;;100.50;32.17;;;;;;;12.76;93.02;101352.41;5028370;28;21052;-70
2021/09/30 13:09:22;;;;;;;100.37;34.43;;;;;;;12.77;92.75;101337.09;5028479;28;20451;-70
2021/09/30 13:11:53;;;;;;;100.43;34.03;;;;;;;12.69;92.53;101322.31;5027211;28;20451;-70
2021/09/30 13:14:28;;;;;;;102.37;34.87;;;;;;;12.82;92.77;101330.44;5028610;28;20436;-70
2021/09/30 13:17:13;;;;;;;106.57;35.33;;;;;;;12.87;92.41;101322.06;5028149;28;20501;-70
2021/09/30 13:19:44;;;;;;;103.47;35.70;;;;;;;12.96;91.97;101326.81;5028692;28;20440;-70
2021/09/30 13:22:14;;;;;;;103.47;36.03;;;;;;;13.03;91.61;101328.97;5027950;28;20471;-70
2021/09/30 13:24:43;;;;;;;105.67;36.03;;;;;;;12.85;91.03;101307.78;5028223;28;20513;-70
2021/09/30 13:27:14;;;;;;;107.57;35.87;;;;;;;13.02;90.13;101331.78;5027590;28;20537;-70
2021/09/30 13:29:44;;;;;;;113.80;37.23;;;;;;;12.91;90.45;101284.00;5028256;28;20938;-70
2021/09/30 13:32:14;;;;;;;111.97;38.03;;;;;;;13.11;89.60;101314.97;5027812;28;21173;-70
2021/09/30 13:34:43;;;;;;;106.60;36.33;;;;;;;13.13;88.90;101312.16;5028083;28;20451;-69
2021/09/30 13:37:12;;;;;;;109.30;36.07;;;;;;;13.12;88.08;101303.19;5028218;28;20473;-69
2021/09/30 13:39:40;;;;;;;102.30;35.40;;;;;;;12.96;87.73;101284.53;5028159;28;20436;-69
2021/09/30 13:42:09;;;;;;;101.13;34.73;;;;;;;13.05;87.09;101321.63;5044587;28;20229;-69
2021/09/30 13:44:38;;;;;;;96.93;33.77;;;;;;;13.05;87.04;101320.78;5032058;28;20996;-70
2021/09/30 13:47:06;;;;;;;103.00;35.23;;;;;;;13.00;86.11;101320.25;5031637;28;20483;-70
2021/09/30 13:49:35;;;;;;;104.23;36.03;;;;;;;12.91;86.23;101302.88;5031794;28;20443;-70
2021/09/30 13:52:04;;;;;;;112.97;36.83;;;;;;;12.85;86.56;101299.69;5045543;28;20586;-69
2021/09/30 13:54:32;;;;;;;109.90;35.87;;;;;;;12.81;86.52;101308.97;5031927;28;20458;-69
2021/09/30 13:57:01;;;;;;;109.27;37.90;;;;;;;12.82;87.01;101291.81;5046674;28;20459;-68
2021/09/30 13:59:29;;;;;;;104.30;35.50;;;;;;;12.75;86.71;101294.94;5032086;28;20454;-70
2021/09/30 14:02:17;;;;;;;100.63;34.10;;;;;;;12.69;87.20;101287.28;5031034;28;20505;-69